createdAt,value
2023-07-24T00:00:55.449Z,22.51
2023-07-24T00:01:52.620Z,22.46
2023-07-24T00:02:49.750Z,22.47
2023-07-24T00:03:47.211Z,22.39
2023-07-24T00:04:44.295Z,22.30
2023-07-24T00:05:41.420Z,22.32
2023-07-24T00:06:38.741Z,22.36
2023-07-24T00:07:35.957Z,22.35
2023-07-24T00:08:33.079Z,22.39
2023-07-24T00:09:30.767Z,22.45
2023-07-24T00:10:27.960Z,22.39
2023-07-24T00:11:25.173Z,22.35
2023-07-24T00:12:22.959Z,22.27
2023-07-24T00:13:20.144Z,22.22
2023-07-24T00:14:17.760Z,22.19
2023-07-24T00:15:14.787Z,22.17
2023-07-24T00:16:12.158Z,22.17
2023-07-24T00:17:09.323Z,22.08
2023-07-24T00:18:06.452Z,22.19
2023-07-24T00:19:03.670Z,22.18
2023-07-24T00:20:00.706Z,22.15
2023-07-24T00:21:54.673Z,22.18
2023-07-24T00:22:52.469Z,22.18
2023-07-24T00:23:49.631Z,22.16
2023-07-24T00:24:46.748Z,22.00
2023-07-24T00:25:43.820Z,22.01
2023-07-24T00:26:41.112Z,21.94
2023-07-24T00:27:38.148Z,21.96
2023-07-24T00:28:35.236Z,21.98
2023-07-24T00:29:32.362Z,21.94
2023-07-24T00:30:29.318Z,21.88
2023-07-24T00:31:26.582Z,21.83
2023-07-24T00:32:23.765Z,21.83
2023-07-24T00:33:20.817Z,21.84
2023-07-24T00:34:17.777Z,21.80
2023-07-24T00:35:14.780Z,21.79
2023-07-24T00:36:11.810Z,21.80
2023-07-24T00:37:09.073Z,21.86
2023-07-24T00:38:06.261Z,21.85
2023-07-24T00:39:03.406Z,21.82
2023-07-24T00:40:00.553Z,21.75
2023-07-24T00:40:57.838Z,21.81
2023-07-24T00:41:54.831Z,21.80
2023-07-24T00:42:51.928Z,21.80
2023-07-24T00:43:49.070Z,21.80
2023-07-24T00:44:46.296Z,21.79
2023-07-24T00:45:43.847Z,21.80
2023-07-24T00:46:41.285Z,21.70
2023-07-24T00:47:38.478Z,21.73
2023-07-24T00:48:35.562Z,21.78
2023-07-24T00:49:32.725Z,21.77
2023-07-24T00:50:30.548Z,21.77
2023-07-24T00:51:31.199Z,21.87
2023-07-24T00:52:28.044Z,21.79
2023-07-24T00:53:25.108Z,21.76
2023-07-24T00:54:24.026Z,21.76
2023-07-24T00:55:21.160Z,21.79
2023-07-24T00:56:18.162Z,21.74
2023-07-24T00:57:15.401Z,21.75
2023-07-24T00:58:13.337Z,21.73
2023-07-24T00:59:10.424Z,21.69
2023-07-24T01:00:08.703Z,21.74
2023-07-24T01:01:06.538Z,21.81
2023-07-24T01:02:03.644Z,21.84
2023-07-24T01:03:01.352Z,21.78
2023-07-24T01:03:58.628Z,21.77
2023-07-24T01:04:55.694Z,21.77
2023-07-24T01:05:52.776Z,21.76
2023-07-24T01:06:49.885Z,21.72
2023-07-24T01:07:46.963Z,21.74
2023-07-24T01:08:44.100Z,21.79
2023-07-24T01:09:41.208Z,21.85
2023-07-24T01:10:38.315Z,21.92
2023-07-24T01:11:41.323Z,21.96
2023-07-24T01:12:49.161Z,21.89
2023-07-24T01:14:13.446Z,21.92
2023-07-24T01:15:17.966Z,21.82
2023-07-24T01:16:18.253Z,21.79
2023-07-24T01:17:23.688Z,21.77
2023-07-24T01:18:24.246Z,21.84
2023-07-24T01:19:30.143Z,21.80
2023-07-24T01:20:28.377Z,21.82
2023-07-24T01:21:46.736Z,21.78
2023-07-24T01:23:07.038Z,21.80
2023-07-24T01:24:24.368Z,21.85
2023-07-24T01:25:38.223Z,21.79
2023-07-24T01:26:35.513Z,21.80
2023-07-24T01:27:32.648Z,21.79
2023-07-24T01:28:29.835Z,21.76
2023-07-24T01:29:26.915Z,21.72
2023-07-24T01:30:24.101Z,21.73
2023-07-24T01:31:21.193Z,21.75
2023-07-24T01:32:18.886Z,21.73
2023-07-24T01:33:16.106Z,21.70
2023-07-24T01:34:13.232Z,21.73
2023-07-24T01:35:10.397Z,21.69
2023-07-24T01:36:08.344Z,21.66
2023-07-24T01:37:05.587Z,21.67
2023-07-24T01:38:04.700Z,21.61
2023-07-24T01:39:02.194Z,21.71
2023-07-24T01:39:59.853Z,21.72
2023-07-24T01:40:57.731Z,21.62
2023-07-24T01:41:55.588Z,21.59
2023-07-24T01:42:53.394Z,21.60
2023-07-24T01:43:50.475Z,21.64
2023-07-24T01:44:55.911Z,21.61
2023-07-24T01:45:52.963Z,21.57
2023-07-24T01:46:50.082Z,21.55
2023-07-24T01:47:47.268Z,21.64
2023-07-24T01:48:44.409Z,21.55
2023-07-24T01:49:41.576Z,21.61
2023-07-24T01:50:38.587Z,21.52
2023-07-24T01:51:35.690Z,21.46
2023-07-24T01:52:32.815Z,21.45
2023-07-24T01:53:29.961Z,21.45
2023-07-24T01:54:26.922Z,21.51
2023-07-24T01:55:23.995Z,21.51
2023-07-24T01:56:21.182Z,21.52
2023-07-24T01:57:18.265Z,21.46
2023-07-24T01:58:15.365Z,21.48
2023-07-24T01:59:12.465Z,21.50
2023-07-24T02:00:10.246Z,21.49
2023-07-24T02:01:07.268Z,21.46
2023-07-24T02:02:04.573Z,21.48
2023-07-24T02:03:01.891Z,21.41
2023-07-24T02:03:59.045Z,21.39
2023-07-24T02:04:56.110Z,21.38
2023-07-24T02:05:53.302Z,21.33
2023-07-24T02:06:51.177Z,21.38
2023-07-24T02:07:48.278Z,21.35
2023-07-24T02:08:50.162Z,21.34
2023-07-24T02:09:47.258Z,21.32
2023-07-24T02:10:44.276Z,21.33
2023-07-24T02:11:41.407Z,21.33
2023-07-24T02:12:38.458Z,21.38
2023-07-24T02:13:35.493Z,21.37
2023-07-24T02:14:32.555Z,21.31
2023-07-24T02:15:29.546Z,21.35
2023-07-24T02:16:26.642Z,21.29
2023-07-24T02:17:24.920Z,21.27
2023-07-24T02:18:21.916Z,21.26
2023-07-24T02:19:18.915Z,21.25
2023-07-24T02:20:16.025Z,21.22
2023-07-24T02:21:13.045Z,21.21
2023-07-24T02:22:10.202Z,21.25
2023-07-24T02:23:09.236Z,21.29
2023-07-24T02:24:06.401Z,21.35
2023-07-24T02:25:03.465Z,21.27
2023-07-24T02:26:00.575Z,21.29
2023-07-24T02:26:57.578Z,21.25
2023-07-24T02:27:54.658Z,21.12
2023-07-24T02:28:51.766Z,21.13
2023-07-24T02:29:48.823Z,21.09
2023-07-24T02:30:48.125Z,21.14
2023-07-24T02:31:45.229Z,21.15
2023-07-24T02:32:42.388Z,21.16
2023-07-24T02:33:39.303Z,21.21
2023-07-24T02:34:36.224Z,21.16
2023-07-24T02:35:33.231Z,21.17
2023-07-24T02:36:30.566Z,21.09
2023-07-24T02:37:27.803Z,21.17
2023-07-24T02:38:24.735Z,21.21
2023-07-24T02:39:22.094Z,21.16
2023-07-24T02:40:19.172Z,21.12
2023-07-24T02:41:16.165Z,21.07
2023-07-24T02:42:13.218Z,21.09
2023-07-24T02:43:10.267Z,21.09
2023-07-24T02:44:07.264Z,21.08
2023-07-24T02:45:05.107Z,21.06
2023-07-24T02:46:03.605Z,21.03
2023-07-24T02:47:00.641Z,21.05
2023-07-24T02:47:57.752Z,21.06
2023-07-24T02:48:55.604Z,21.08
2023-07-24T02:49:52.637Z,21.09
2023-07-24T02:50:50.305Z,21.06
2023-07-24T02:51:47.305Z,21.07
2023-07-24T02:52:44.249Z,21.12
2023-07-24T02:53:41.205Z,21.11
2023-07-24T02:54:38.254Z,21.10
2023-07-24T02:55:35.314Z,21.14
2023-07-24T02:56:32.518Z,21.05
2023-07-24T02:57:29.680Z,21.00
2023-07-24T02:58:26.663Z,21.09
2023-07-24T02:59:23.612Z,21.08
2023-07-24T03:00:20.747Z,21.10
2023-07-24T03:01:17.983Z,21.06
2023-07-24T03:02:15.162Z,21.04
2023-07-24T03:03:12.404Z,21.01
2023-07-24T03:04:09.628Z,20.99
2023-07-24T03:05:06.893Z,21.04
2023-07-24T03:06:04.050Z,20.96
2023-07-24T03:07:01.185Z,20.94
2023-07-24T03:07:58.201Z,20.99
2023-07-24T03:08:55.293Z,21.00
2023-07-24T03:09:52.428Z,20.97
2023-07-24T03:10:49.475Z,21.00
2023-07-24T03:11:46.491Z,20.99
2023-07-24T03:12:43.499Z,20.98
2023-07-24T03:13:42.343Z,20.96
2023-07-24T03:14:39.300Z,20.93
2023-07-24T03:15:36.187Z,20.97
2023-07-24T03:16:33.334Z,20.95
2023-07-24T03:17:30.372Z,20.93
2023-07-24T03:18:27.546Z,20.95
2023-07-24T03:19:24.584Z,20.93
2023-07-24T03:20:22.362Z,20.97
2023-07-24T03:21:20.740Z,20.99
2023-07-24T03:22:17.816Z,20.94
2023-07-24T03:23:14.963Z,20.89
2023-07-24T03:24:12.022Z,20.96
2023-07-24T03:25:09.575Z,20.93
2023-07-24T03:26:06.552Z,20.99
2023-07-24T03:27:03.713Z,21.04
2023-07-24T03:28:00.626Z,21.01
2023-07-24T03:28:57.589Z,21.03
2023-07-24T03:29:54.589Z,21.02
2023-07-24T03:30:51.648Z,20.99
2023-07-24T03:31:48.787Z,21.00
2023-07-24T03:32:45.896Z,21.07
2023-07-24T03:33:42.914Z,21.08
2023-07-24T03:34:40.506Z,21.12
2023-07-24T03:35:37.607Z,21.17
2023-07-24T03:36:35.273Z,21.19
2023-07-24T03:37:32.911Z,21.30
2023-07-24T03:38:29.975Z,21.34
2023-07-24T03:39:26.911Z,21.41
2023-07-24T03:40:23.960Z,21.34
2023-07-24T03:41:21.702Z,21.37
2023-07-24T03:42:38.876Z,21.40
2023-07-24T03:43:35.945Z,21.44
2023-07-24T03:44:32.987Z,21.50
2023-07-24T03:45:30.098Z,21.58
2023-07-24T03:46:27.358Z,21.52
2023-07-24T03:47:25.561Z,21.47
2023-07-24T03:48:22.632Z,21.49
2023-07-24T03:49:19.594Z,21.54
2023-07-24T03:50:16.642Z,21.54
2023-07-24T03:51:13.684Z,21.51
2023-07-24T03:52:10.738Z,21.49
2023-07-24T03:53:07.916Z,21.48
2023-07-24T03:54:05.013Z,21.58
2023-07-24T03:55:03.299Z,21.64
2023-07-24T03:56:00.458Z,21.73
2023-07-24T03:56:57.382Z,21.72
2023-07-24T03:57:54.404Z,21.67
2023-07-24T03:58:51.415Z,21.69
2023-07-24T03:59:48.377Z,21.73
2023-07-24T04:00:45.503Z,21.81
2023-07-24T04:01:42.491Z,21.83
2023-07-24T04:02:41.021Z,21.82
2023-07-24T04:03:38.109Z,21.87
2023-07-24T04:04:35.254Z,21.95
2023-07-24T04:05:32.301Z,21.96
2023-07-24T04:06:29.765Z,21.98
2023-07-24T04:07:28.536Z,22.07
2023-07-24T04:08:25.602Z,22.15
2023-07-24T04:09:22.551Z,22.06
2023-07-24T04:10:19.513Z,22.09
2023-07-24T04:11:16.478Z,22.15
2023-07-24T04:12:14.012Z,22.14
2023-07-24T04:13:11.007Z,22.29
2023-07-24T04:14:08.156Z,22.39
2023-07-24T04:15:05.666Z,22.59
2023-07-24T04:16:02.725Z,22.78
2023-07-24T04:16:59.862Z,22.82
2023-07-24T04:17:56.939Z,22.89
2023-07-24T04:18:53.973Z,22.99
2023-07-24T04:19:51.070Z,22.98
2023-07-24T04:20:48.174Z,23.07
2023-07-24T04:21:45.194Z,22.97
2023-07-24T04:22:42.624Z,22.97
2023-07-24T04:23:39.747Z,23.02
2023-07-24T04:24:37.040Z,22.95
2023-07-24T04:25:34.229Z,23.07
2023-07-24T04:26:31.500Z,23.19
2023-07-24T04:27:28.897Z,23.31
2023-07-24T04:28:25.983Z,23.43
2023-07-24T04:29:25.164Z,23.53
2023-07-24T04:30:22.234Z,23.78
2023-07-24T04:31:19.210Z,23.91
2023-07-24T04:32:16.302Z,23.96
2023-07-24T04:33:13.357Z,24.01
2023-07-24T04:34:10.378Z,24.29
2023-07-24T04:35:08.310Z,24.53
2023-07-24T04:36:05.686Z,24.67
2023-07-24T04:37:02.701Z,24.80
2023-07-24T04:37:59.863Z,24.69
2023-07-24T04:38:56.796Z,24.57
2023-07-24T04:39:53.804Z,24.50
2023-07-24T04:40:50.846Z,24.60
2023-07-24T04:41:47.951Z,24.58
2023-07-24T04:42:44.987Z,24.52
2023-07-24T04:43:41.903Z,24.42
2023-07-24T04:44:38.934Z,24.49
2023-07-24T04:45:36.045Z,24.50
2023-07-24T04:46:33.459Z,24.49
2023-07-24T04:47:30.680Z,24.60
2023-07-24T04:48:27.731Z,24.89
2023-07-24T04:49:25.788Z,25.39
2023-07-24T04:50:22.764Z,25.50
2023-07-24T04:51:20.067Z,25.90
2023-07-24T04:52:17.174Z,26.23
2023-07-24T04:53:14.150Z,26.63
2023-07-24T04:54:11.139Z,27.06
2023-07-24T04:55:08.608Z,27.11
2023-07-24T04:56:05.851Z,27.13
2023-07-24T04:57:02.980Z,26.89
2023-07-24T04:58:00.063Z,27.02
2023-07-24T04:58:57.042Z,26.52
2023-07-24T04:59:54.104Z,26.51
2023-07-24T05:00:51.051Z,26.54
2023-07-24T05:01:48.145Z,26.34
2023-07-24T05:02:45.167Z,26.08
2023-07-24T05:03:42.260Z,26.08
2023-07-24T05:04:39.400Z,26.05
2023-07-24T05:05:36.419Z,25.87
2023-07-24T05:06:33.553Z,25.72
2023-07-24T05:07:30.593Z,25.72
2023-07-24T05:08:27.610Z,25.65
2023-07-24T05:09:24.583Z,25.72
2023-07-24T05:10:21.693Z,25.44
2023-07-24T05:11:18.734Z,25.53
2023-07-24T05:12:15.773Z,25.49
2023-07-24T05:13:13.892Z,25.43
2023-07-24T05:14:11.062Z,25.54
2023-07-24T05:15:08.854Z,25.71
2023-07-24T05:16:06.007Z,25.75
2023-07-24T05:17:03.161Z,25.95
2023-07-24T05:18:00.328Z,26.06
2023-07-24T05:18:57.440Z,26.32
2023-07-24T05:19:54.503Z,26.41
2023-07-24T05:20:54.479Z,26.33
2023-07-24T05:21:51.472Z,26.60
2023-07-24T05:22:48.592Z,26.34
2023-07-24T05:23:45.645Z,26.57
2023-07-24T05:24:42.765Z,26.67
2023-07-24T05:25:39.805Z,26.61
2023-07-24T05:26:37.006Z,26.83
2023-07-24T05:27:34.216Z,27.11
2023-07-24T05:28:32.555Z,27.42
2023-07-24T05:29:29.590Z,27.55
2023-07-24T05:30:26.629Z,27.50
2023-07-24T05:31:23.690Z,27.51
2023-07-24T05:32:20.753Z,27.42
2023-07-24T05:33:17.754Z,27.20
2023-07-24T05:34:14.756Z,27.31
2023-07-24T05:35:11.744Z,27.11
2023-07-24T05:36:08.758Z,26.89
2023-07-24T05:37:06.849Z,26.84
2023-07-24T05:38:03.997Z,27.04
2023-07-24T05:39:01.106Z,27.07
2023-07-24T05:39:58.172Z,27.11
2023-07-24T05:40:58.354Z,27.07
2023-07-24T05:41:55.460Z,27.05
2023-07-24T05:42:52.462Z,26.83
2023-07-24T05:43:49.511Z,26.89
2023-07-24T05:44:46.510Z,27.08
2023-07-24T05:45:43.565Z,27.28
2023-07-24T05:46:40.592Z,27.41
2023-07-24T05:47:37.833Z,27.20
2023-07-24T05:48:34.998Z,27.08
2023-07-24T05:49:32.135Z,27.33
2023-07-24T05:50:29.182Z,27.42
2023-07-24T05:51:26.120Z,27.49
2023-07-24T05:52:23.131Z,27.47
2023-07-24T05:53:22.773Z,27.31
2023-07-24T05:54:19.709Z,27.48
2023-07-24T05:55:16.863Z,27.54
2023-07-24T05:56:13.880Z,27.54
2023-07-24T05:57:10.856Z,27.09
2023-07-24T05:58:07.833Z,27.09
2023-07-24T05:59:04.842Z,27.16
2023-07-24T06:00:01.853Z,27.46
2023-07-24T06:00:58.900Z,27.17
2023-07-24T06:01:55.952Z,27.34
2023-07-24T06:02:54.471Z,27.55
2023-07-24T06:03:53.652Z,27.44
2023-07-24T06:04:50.630Z,27.52
2023-07-24T06:05:47.992Z,27.37
2023-07-24T06:06:45.052Z,27.45
2023-07-24T06:07:42.085Z,27.57
2023-07-24T06:08:39.129Z,27.26
2023-07-24T06:09:36.289Z,27.17
2023-07-24T06:10:33.253Z,27.28
2023-07-24T06:11:30.439Z,27.06
2023-07-24T06:12:27.410Z,26.94
2023-07-24T06:13:24.423Z,27.01
2023-07-24T06:14:21.380Z,26.96
2023-07-24T06:15:18.402Z,27.09
2023-07-24T06:16:15.544Z,27.07
2023-07-24T06:17:12.563Z,27.00
2023-07-24T06:18:10.127Z,26.95
2023-07-24T06:19:07.334Z,27.04
2023-07-24T06:20:04.682Z,27.29
2023-07-24T06:21:01.644Z,27.14
2023-07-24T06:21:58.678Z,27.26
2023-07-24T06:22:55.727Z,27.23
2023-07-24T06:23:53.126Z,27.17
2023-07-24T06:24:50.594Z,27.11
2023-07-24T06:25:47.630Z,27.14
2023-07-24T06:26:44.582Z,27.25
2023-07-24T06:27:41.523Z,27.29
2023-07-24T06:28:38.572Z,27.38
2023-07-24T06:29:35.777Z,27.38
2023-07-24T06:30:33.382Z,27.52
2023-07-24T06:31:30.460Z,27.66
2023-07-24T06:32:27.532Z,27.44
2023-07-24T06:33:24.573Z,27.56
2023-07-24T06:34:21.509Z,27.59
2023-07-24T06:35:18.738Z,27.67
2023-07-24T06:36:15.956Z,27.53
2023-07-24T06:37:22.152Z,27.23
2023-07-24T06:38:22.692Z,27.37
2023-07-24T06:39:20.326Z,27.53
2023-07-24T06:40:17.432Z,27.39
2023-07-24T06:41:16.882Z,27.49
2023-07-24T06:42:13.973Z,27.48
2023-07-24T06:43:10.928Z,27.54
2023-07-24T06:44:07.906Z,27.66
2023-07-24T06:45:08.360Z,27.96
2023-07-24T06:46:06.060Z,28.04
2023-07-24T06:47:03.243Z,27.96
2023-07-24T06:48:00.272Z,28.06
2023-07-24T06:48:57.222Z,28.26
2023-07-24T06:49:54.184Z,28.61
2023-07-24T06:50:51.266Z,28.62
2023-07-24T06:51:48.414Z,28.87
2023-07-24T06:52:45.403Z,29.06
2023-07-24T06:53:42.455Z,29.05
2023-07-24T06:54:39.613Z,29.09
2023-07-24T06:55:36.569Z,29.02
2023-07-24T06:56:33.662Z,28.77
2023-07-24T06:57:30.801Z,28.58
2023-07-24T06:58:27.852Z,28.70
2023-07-24T06:59:25.150Z,28.82
2023-07-24T07:00:22.324Z,28.56
2023-07-24T07:01:19.450Z,28.40
2023-07-24T07:02:16.600Z,28.23
2023-07-24T07:03:13.678Z,28.22
2023-07-24T07:04:10.858Z,28.24
2023-07-24T07:05:08.243Z,28.24
2023-07-24T07:06:05.335Z,28.44
2023-07-24T07:07:02.328Z,28.49
2023-07-24T07:07:59.367Z,28.31
2023-07-24T07:08:56.279Z,28.33
2023-07-24T07:09:53.287Z,28.45
2023-07-24T07:10:59.037Z,28.53
2023-07-24T07:11:56.097Z,28.29
2023-07-24T07:12:53.088Z,28.34
2023-07-24T07:13:50.495Z,28.28
2023-07-24T07:14:47.689Z,28.37
2023-07-24T07:15:44.757Z,28.20
2023-07-24T07:16:42.246Z,28.40
2023-07-24T07:17:39.421Z,28.41
2023-07-24T07:18:36.591Z,28.38
2023-07-24T07:19:33.728Z,28.67
2023-07-24T07:20:30.911Z,28.81
2023-07-24T07:21:28.082Z,28.80
2023-07-24T07:22:25.077Z,28.79
2023-07-24T07:23:23.043Z,28.90
2023-07-24T07:24:20.292Z,28.86
2023-07-24T07:25:17.354Z,28.95
2023-07-24T07:26:14.453Z,28.88
2023-07-24T07:27:11.494Z,28.95
2023-07-24T07:28:08.590Z,29.06
2023-07-24T07:29:05.769Z,29.06
2023-07-24T07:30:02.819Z,29.10
2023-07-24T07:30:59.906Z,29.27
2023-07-24T07:31:56.929Z,29.28
2023-07-24T07:32:53.980Z,29.18
2023-07-24T07:33:51.160Z,29.31
2023-07-24T07:34:48.329Z,29.44
2023-07-24T07:35:46.807Z,29.39
2023-07-24T07:36:43.867Z,29.43
2023-07-24T07:37:40.921Z,29.59
2023-07-24T07:38:38.912Z,29.48
2023-07-24T07:39:36.023Z,29.46
2023-07-24T07:40:33.058Z,29.55
2023-07-24T07:41:30.126Z,29.64
2023-07-24T07:42:27.200Z,29.67
2023-07-24T07:43:24.228Z,29.66
2023-07-24T07:44:21.236Z,29.34
2023-07-24T07:45:18.286Z,29.37
2023-07-24T07:46:15.243Z,29.38
2023-07-24T07:47:12.302Z,29.27
2023-07-24T07:48:09.335Z,29.37
2023-07-24T07:49:06.531Z,29.41
2023-07-24T07:50:04.147Z,29.20
2023-07-24T07:51:01.185Z,29.02
2023-07-24T07:51:58.368Z,29.18
2023-07-24T07:52:55.363Z,29.28
2023-07-24T07:53:52.454Z,29.40
2023-07-24T07:54:50.306Z,29.37
2023-07-24T07:55:47.366Z,29.40
2023-07-24T07:56:44.489Z,29.26
2023-07-24T07:57:41.522Z,29.05
2023-07-24T07:58:38.569Z,29.05
2023-07-24T07:59:36.417Z,29.13
2023-07-24T08:00:33.614Z,29.35
2023-07-24T08:01:31.988Z,29.26
2023-07-24T08:02:29.103Z,29.33
2023-07-24T08:03:26.267Z,29.23
2023-07-24T08:04:23.496Z,29.37
2023-07-24T08:05:21.612Z,29.42
2023-07-24T08:06:18.886Z,29.30
2023-07-24T08:07:15.910Z,29.36
2023-07-24T08:08:13.062Z,29.43
2023-07-24T08:09:10.006Z,29.28
2023-07-24T08:10:08.084Z,29.08
2023-07-24T08:11:08.722Z,29.14
2023-07-24T08:12:08.512Z,29.24
2023-07-24T08:13:06.161Z,29.30
2023-07-24T08:14:03.209Z,29.44
2023-07-24T08:15:00.469Z,29.35
2023-07-24T08:15:57.540Z,29.37
2023-07-24T08:16:55.227Z,29.33
2023-07-24T08:17:52.427Z,29.43
2023-07-24T08:18:50.032Z,29.56
2023-07-24T08:19:47.057Z,29.61
2023-07-24T08:20:44.046Z,29.44
2023-07-24T08:21:41.779Z,29.45
2023-07-24T08:22:38.981Z,29.58
2023-07-24T08:23:35.979Z,29.68
2023-07-24T08:24:36.765Z,29.73
2023-07-24T08:25:33.864Z,29.55
2023-07-24T08:26:31.099Z,29.57
2023-07-24T08:27:28.425Z,29.57
2023-07-24T08:28:25.514Z,29.64
2023-07-24T08:29:22.851Z,29.74
2023-07-24T08:30:20.565Z,29.89
2023-07-24T08:31:17.606Z,30.00
2023-07-24T08:32:14.823Z,29.86
2023-07-24T08:33:12.199Z,29.80
2023-07-24T08:34:09.267Z,29.82
2023-07-24T08:35:06.964Z,29.93
2023-07-24T08:36:06.230Z,29.96
2023-07-24T08:37:03.209Z,29.98
2023-07-24T08:38:00.425Z,29.99
2023-07-24T08:38:57.485Z,29.89
2023-07-24T08:39:54.453Z,30.04
2023-07-24T08:41:02.049Z,30.15
2023-07-24T08:41:59.077Z,30.07
2023-07-24T08:42:56.349Z,29.94
2023-07-24T08:43:55.060Z,29.80
2023-07-24T08:44:53.333Z,29.91
2023-07-24T08:45:50.302Z,29.86
2023-07-24T08:46:48.727Z,29.97
2023-07-24T08:47:46.272Z,30.08
2023-07-24T08:48:44.192Z,29.94
2023-07-24T08:49:41.862Z,29.84
2023-07-24T08:50:38.902Z,30.07
2023-07-24T08:51:36.668Z,30.16
2023-07-24T08:52:36.327Z,30.08
2023-07-24T08:53:37.130Z,30.20
2023-07-24T08:54:34.136Z,30.18
2023-07-24T08:55:31.282Z,30.25
2023-07-24T08:56:28.821Z,30.33
2023-07-24T08:57:26.173Z,30.24
2023-07-24T08:58:23.447Z,30.21
2023-07-24T08:59:20.567Z,30.12
2023-07-24T09:00:17.899Z,30.08
2023-07-24T09:01:14.968Z,30.11
2023-07-24T09:02:12.061Z,30.05
2023-07-24T09:03:09.537Z,30.24
2023-07-24T09:04:06.687Z,30.16
2023-07-24T09:05:04.883Z,30.28
2023-07-24T09:06:03.005Z,30.44
2023-07-24T09:07:00.219Z,30.42
2023-07-24T09:07:57.235Z,30.58
2023-07-24T09:08:55.512Z,30.62
2023-07-24T09:09:52.644Z,30.48
2023-07-24T09:10:51.997Z,30.49
2023-07-24T09:11:55.132Z,30.66
2023-07-24T09:12:52.293Z,30.84
2023-07-24T09:15:06.464Z,30.94
2023-07-24T09:16:04.634Z,30.65
2023-07-24T09:17:09.021Z,30.51
2023-07-24T09:18:06.239Z,30.56
2023-07-24T09:19:11.270Z,30.66
2023-07-24T09:20:09.415Z,30.69
2023-07-24T09:21:06.357Z,30.61
2023-07-24T09:22:29.521Z,30.72
2023-07-24T09:23:29.633Z,30.83
2023-07-24T09:24:26.728Z,30.56
2023-07-24T09:25:33.611Z,30.54
2023-07-24T09:26:30.827Z,30.55
2023-07-24T09:27:30.104Z,30.74
2023-07-24T09:28:29.175Z,30.61
2023-07-24T09:29:32.840Z,30.55
2023-07-24T09:30:30.005Z,30.41
2023-07-24T09:31:37.352Z,30.24
2023-07-24T09:32:35.546Z,30.39
2023-07-24T09:33:40.095Z,30.50
2023-07-24T09:34:43.630Z,30.53
2023-07-24T09:35:40.744Z,30.54
2023-07-24T09:36:39.931Z,30.56
2023-07-24T09:37:36.987Z,30.48
2023-07-24T09:38:34.126Z,30.43
2023-07-24T09:39:31.194Z,30.53
2023-07-24T09:40:28.313Z,30.67
2023-07-24T09:41:29.362Z,30.74
2023-07-24T09:42:44.782Z,30.86
2023-07-24T09:43:45.766Z,30.87
2023-07-24T09:44:43.045Z,30.84
2023-07-24T09:45:46.059Z,30.68
2023-07-24T09:47:01.840Z,30.74
2023-07-24T09:48:06.319Z,30.90
2023-07-24T09:49:09.597Z,30.92
2023-07-24T09:50:07.760Z,30.79
2023-07-24T09:51:04.787Z,30.72
2023-07-24T09:52:04.772Z,30.76
2023-07-24T09:53:01.927Z,30.81
2023-07-24T09:54:16.633Z,30.68
2023-07-24T09:55:21.008Z,30.79
2023-07-24T09:56:18.984Z,30.93
2023-07-24T09:57:22.934Z,30.90
2023-07-24T09:58:20.484Z,31.10
2023-07-24T09:59:18.291Z,31.25
2023-07-24T10:00:16.050Z,31.14
2023-07-24T10:01:13.550Z,31.20
2023-07-24T10:02:12.415Z,31.19
2023-07-24T10:03:09.863Z,31.18
2023-07-24T10:04:07.701Z,31.16
2023-07-24T10:05:04.979Z,31.05
2023-07-24T10:06:02.400Z,31.18
2023-07-24T10:06:59.595Z,31.17
2023-07-24T10:07:56.931Z,31.10
2023-07-24T10:08:54.093Z,31.28
2023-07-24T10:09:52.374Z,31.46
2023-07-24T10:10:52.406Z,31.34
2023-07-24T10:11:49.400Z,31.42
2023-07-24T10:12:46.621Z,31.38
2023-07-24T10:13:43.902Z,31.37
2023-07-24T10:14:40.901Z,31.31
2023-07-24T10:15:39.010Z,31.53
2023-07-24T10:16:36.073Z,31.49
2023-07-24T10:17:40.679Z,31.59
2023-07-24T10:18:44.799Z,31.37
2023-07-24T10:19:44.394Z,31.45
2023-07-24T10:20:42.306Z,31.54
2023-07-24T10:21:47.201Z,31.61
2023-07-24T10:22:44.753Z,31.69
2023-07-24T10:23:47.874Z,31.68
2023-07-24T10:24:45.019Z,31.79
2023-07-24T10:25:42.089Z,31.86
2023-07-24T10:26:39.200Z,31.85
2023-07-24T10:27:47.035Z,31.80
2023-07-24T10:28:44.129Z,31.63
2023-07-24T10:29:41.245Z,31.64
2023-07-24T10:30:44.984Z,31.81
2023-07-24T10:31:42.336Z,31.73
2023-07-24T10:32:51.517Z,31.66
2023-07-24T10:33:51.374Z,31.75
2023-07-24T10:34:57.826Z,31.76
2023-07-24T10:35:55.800Z,31.86
2023-07-24T10:37:04.622Z,31.82
2023-07-24T10:38:03.152Z,31.83
2023-07-24T10:39:00.143Z,31.80
2023-07-24T10:39:57.953Z,31.87
2023-07-24T10:41:03.695Z,31.87
2023-07-24T10:42:07.455Z,31.94
2023-07-24T10:43:08.052Z,31.89
2023-07-24T10:44:05.233Z,31.95
2023-07-24T10:45:09.088Z,32.01
2023-07-24T10:46:06.265Z,32.19
2023-07-24T10:47:03.703Z,32.25
2023-07-24T10:48:00.729Z,32.26
2023-07-24T10:49:02.189Z,32.24
2023-07-24T10:49:59.483Z,32.18
2023-07-24T10:50:56.435Z,32.17
2023-07-24T10:51:57.925Z,32.17
2023-07-24T10:52:55.356Z,32.22
2023-07-24T10:53:52.447Z,32.28
2023-07-24T10:54:52.176Z,32.33
2023-07-24T10:55:49.491Z,32.11
2023-07-24T10:56:46.494Z,32.17
2023-07-24T10:57:43.479Z,32.13
2023-07-24T10:58:40.479Z,32.13
2023-07-24T10:59:39.067Z,32.13
2023-07-24T11:00:36.328Z,32.26
2023-07-24T11:01:34.739Z,32.43
2023-07-24T11:02:32.485Z,32.26
2023-07-24T11:03:29.551Z,32.12
2023-07-24T11:04:26.627Z,32.22
2023-07-24T11:05:24.288Z,32.19
2023-07-24T11:06:23.609Z,32.22
2023-07-24T11:07:20.835Z,32.35
2023-07-24T11:08:19.745Z,32.32
2023-07-24T11:09:16.757Z,32.23
2023-07-24T11:10:20.273Z,32.37
2023-07-24T11:11:18.648Z,32.34
2023-07-24T11:12:16.974Z,32.28
2023-07-24T11:13:13.922Z,32.14
2023-07-24T11:14:15.847Z,32.21
2023-07-24T11:15:13.685Z,32.31
2023-07-24T11:16:10.866Z,32.32
2023-07-24T11:17:07.943Z,32.41
2023-07-24T11:18:09.622Z,32.55
2023-07-24T11:19:06.644Z,32.64
2023-07-24T11:20:08.513Z,32.47
2023-07-24T11:21:07.023Z,32.48
2023-07-24T11:22:05.067Z,32.45
2023-07-24T11:23:02.078Z,32.18
2023-07-24T11:23:59.276Z,32.24
2023-07-24T11:24:58.500Z,32.41
2023-07-24T11:25:55.696Z,32.30
2023-07-24T11:26:53.940Z,32.38
2023-07-24T11:27:50.991Z,32.52
2023-07-24T11:28:48.030Z,32.59
2023-07-24T11:29:53.944Z,32.48
2023-07-24T11:30:52.942Z,32.37
2023-07-24T11:31:55.778Z,32.48
2023-07-24T11:32:53.180Z,32.53
2023-07-24T11:33:51.300Z,32.60
2023-07-24T11:34:49.818Z,32.63
2023-07-24T11:35:47.070Z,32.45
2023-07-24T11:36:44.085Z,32.44
2023-07-24T11:37:41.264Z,32.54
2023-07-24T11:38:40.207Z,32.52
2023-07-24T11:39:37.357Z,32.32
2023-07-24T11:40:36.740Z,32.20
2023-07-24T11:41:34.130Z,32.05
2023-07-24T11:42:31.909Z,32.10
2023-07-24T11:43:28.880Z,31.94
2023-07-24T11:44:29.596Z,31.78
2023-07-24T11:45:26.821Z,31.95
2023-07-24T11:46:28.267Z,32.04
2023-07-24T11:47:25.480Z,32.07
2023-07-24T11:48:24.700Z,32.31
2023-07-24T11:49:21.881Z,32.29
2023-07-24T11:50:19.060Z,32.48
2023-07-24T11:51:16.062Z,32.50
2023-07-24T11:52:13.172Z,32.59
2023-07-24T11:53:26.693Z,32.71
2023-07-24T11:54:23.765Z,32.89
2023-07-24T11:55:33.718Z,33.14
2023-07-24T11:56:31.047Z,32.94
2023-07-24T11:57:29.991Z,32.78
2023-07-24T11:58:28.290Z,33.07
2023-07-24T11:59:25.978Z,32.87
2023-07-24T12:00:24.105Z,32.76
2023-07-24T12:01:21.682Z,32.63
2023-07-24T12:02:18.672Z,32.62
2023-07-24T12:03:20.993Z,32.78
2023-07-24T12:04:18.805Z,32.82
2023-07-24T12:05:16.149Z,32.82
2023-07-24T12:06:19.679Z,32.79
2023-07-24T12:07:17.373Z,32.80
2023-07-24T12:08:15.794Z,32.89
2023-07-24T12:09:13.262Z,32.55
2023-07-24T12:10:10.831Z,32.53
2023-07-24T12:11:18.072Z,32.52
2023-07-24T12:12:17.963Z,32.56
2023-07-24T12:13:15.173Z,32.68
2023-07-24T12:14:13.560Z,32.77
2023-07-24T12:15:11.476Z,32.60
2023-07-24T12:16:08.549Z,32.47
2023-07-24T12:17:11.102Z,32.55
2023-07-24T12:18:08.479Z,32.60
2023-07-24T12:19:07.110Z,32.64
2023-07-24T12:20:07.388Z,32.80
2023-07-24T12:21:04.895Z,32.85
2023-07-24T12:22:05.057Z,32.60
2023-07-24T12:23:02.139Z,32.59
2023-07-24T12:23:59.278Z,32.55
2023-07-24T12:24:57.533Z,32.66
2023-07-24T12:25:55.952Z,32.60
2023-07-24T12:26:53.314Z,32.43
2023-07-24T12:27:50.433Z,32.31
2023-07-24T12:28:47.754Z,32.26
2023-07-24T12:29:45.063Z,32.33
2023-07-24T12:30:42.380Z,32.47
2023-07-24T12:31:39.570Z,32.58